sensor_id;sensor_type;location;lat;lon;timestamp;pressure;altitude;pressure_sealevel;temperature;humidity
65359;BME280;52491;45.900;6.346;2023-02-28T00:01:02;93663.78;;;23.86;19.84
65359;BME280;52491;45.900;6.346;2023-02-28T00:03:27;93666.44;;;23.86;19.74
65359;BME280;52491;45.900;6.346;2023-02-28T00:05:53;93658.72;;;23.79;19.85
65359;BME280;52491;45.900;6.346;2023-02-28T00:08:18;93659.50;;;23.75;19.81
65359;BME280;52491;45.900;6.346;2023-02-28T00:10:44;93657.91;;;23.74;19.91
65359;BME280;52491;45.900;6.346;2023-02-28T00:13:09;93656.56;;;23.71;19.99
65359;BME280;52491;45.900;6.346;2023-02-28T00:15:36;93655.50;;;23.72;19.83
65359;BME280;52491;45.900;6.346;2023-02-28T00:18:02;93655.50;;;23.72;19.87
65359;BME280;52491;45.900;6.346;2023-02-28T00:20:28;93657.63;;;23.70;19.71
65359;BME280;52491;45.900;6.346;2023-02-28T00:22:55;93657.06;;;23.68;19.87
65359;BME280;52491;45.900;6.346;2023-02-28T00:25:23;93661.31;;;23.69;19.77
65359;BME280;52491;45.900;6.346;2023-02-28T00:27:49;93656.28;;;23.67;19.83
65359;BME280;52491;45.900;6.346;2023-02-28T00:30:18;93665.31;;;23.66;19.74
65359;BME280;52491;45.900;6.346;2023-02-28T00:32:44;93662.91;;;23.65;19.77
65359;BME280;52491;45.900;6.346;2023-02-28T00:35:10;93661.34;;;23.64;19.72
65359;BME280;52491;45.900;6.346;2023-02-28T00:37:36;93670.91;;;23.65;19.59
65359;BME280;52491;45.900;6.346;2023-02-28T00:40:03;93668.50;;;23.63;19.83
65359;BME280;52491;45.900;6.346;2023-02-28T00:42:35;93667.97;;;23.61;19.83
65359;BME280;52491;45.900;6.346;2023-02-28T00:45:02;93670.63;;;23.61;19.76
65359;BME280;52491;45.900;6.346;2023-02-28T00:47:30;93661.84;;;23.61;19.81
65359;BME280;52491;45.900;6.346;2023-02-28T00:49:56;93666.34;;;23.60;19.70
65359;BME280;52491;45.900;6.346;2023-02-28T00:52:21;93665.56;;;23.60;19.72
65359;BME280;52491;45.900;6.346;2023-02-28T00:54:47;93670.09;;;23.59;19.78
65359;BME280;52491;45.900;6.346;2023-02-28T00:57:12;93667.44;;;23.59;19.77
65359;BME280;52491;45.900;6.346;2023-02-28T00:59:38;93664.22;;;23.57;19.73
65359;BME280;52491;45.900;6.346;2023-02-28T01:02:04;93669.53;;;23.57;19.84
65359;BME280;52491;45.900;6.346;2023-02-28T01:04:29;93665.31;;;23.56;19.74
65359;BME280;52491;45.900;6.346;2023-02-28T01:06:55;93661.84;;;23.56;19.71
65359;BME280;52491;45.900;6.346;2023-02-28T01:09:21;93664.50;;;23.56;19.84
65359;BME280;52491;45.900;6.346;2023-02-28T01:11:47;93660.78;;;23.57;19.75
65359;BME280;52491;45.900;6.346;2023-02-28T01:14:14;93660.78;;;23.57;19.63
65359;BME280;52491;45.900;6.346;2023-02-28T01:16:40;93664.50;;;23.56;19.71
65359;BME280;52491;45.900;6.346;2023-02-28T01:19:06;93660.22;;;23.55;19.75
65359;BME280;52491;45.900;6.346;2023-02-28T01:21:32;93669.00;;;23.55;19.72
65359;BME280;52491;45.900;6.346;2023-02-28T01:23:58;93655.97;;;23.54;19.68
65359;BME280;52491;45.900;6.346;2023-02-28T01:26:24;93656.78;;;23.54;19.55
65359;BME280;52491;45.900;6.346;2023-02-28T01:28:51;93660.22;;;23.55;19.71
65359;BME280;52491;45.900;6.346;2023-02-28T01:31:18;93654.91;;;23.55;19.79
65359;BME280;52491;45.900;6.346;2023-02-28T01:33:44;93661.03;;;23.55;19.64
65359;BME280;52491;45.900;6.346;2023-02-28T01:36:16;93661.03;;;23.55;19.66
65359;BME280;52491;45.900;6.346;2023-02-28T01:38:42;93661.03;;;23.55;19.88
65359;BME280;52491;45.900;6.346;2023-02-28T01:41:09;93669.00;;;23.55;19.63
65359;BME280;52491;45.900;6.346;2023-02-28T01:46:09;93661.84;;;23.56;19.72
65359;BME280;52491;45.900;6.346;2023-02-28T01:48:38;93656.25;;;23.57;19.56
65359;BME280;52491;45.900;6.346;2023-02-28T01:51:11;93664.22;;;23.57;19.56
65359;BME280;52491;45.900;6.346;2023-02-28T01:53:44;93661.56;;;23.57;19.52
65359;BME280;52491;45.900;6.346;2023-02-28T01:56:13;93654.66;;;23.56;19.64
65359;BME280;52491;45.900;6.346;2023-02-28T01:58:47;93653.84;;;23.56;19.67
65359;BME280;52491;45.900;6.346;2023-02-28T02:01:13;93649.59;;;23.55;19.57
65359;BME280;52491;45.900;6.346;2023-02-28T02:03:57;93649.59;;;23.55;19.63
65359;BME280;52491;45.900;6.346;2023-02-28T02:06:37;93642.41;;;23.55;19.52
65359;BME280;52491;45.900;6.346;2023-02-28T02:09:03;93640.00;;;23.54;19.63
65359;BME280;52491;45.900;6.346;2023-02-28T02:11:29;93642.41;;;23.55;19.66
65359;BME280;52491;45.900;6.346;2023-02-28T02:16:54;93640.28;;;23.57;19.55
65359;BME280;52491;45.900;6.346;2023-02-28T02:22:37;93639.22;;;23.58;19.52
65359;BME280;52491;45.900;6.346;2023-02-28T02:25:30;93636.81;;;23.57;19.51
65359;BME280;52491;45.900;6.346;2023-02-28T02:39:50;93624.56;;;23.51;19.63
65359;BME280;52491;45.900;6.346;2023-02-28T02:42:28;93627.78;;;23.53;19.67
65359;BME280;52491;45.900;6.346;2023-02-28T02:45:11;93613.66;;;23.52;19.50
65359;BME280;52491;45.900;6.346;2023-02-28T02:47:38;93622.47;;;23.53;19.59
65359;BME280;52491;45.900;6.346;2023-02-28T02:50:08;93624.28;;;23.52;19.75
65359;BME280;52491;45.900;6.346;2023-02-28T02:52:45;93621.13;;;23.50;19.61
65359;BME280;52491;45.900;6.346;2023-02-28T02:55:14;93621.13;;;23.50;19.65
65359;BME280;52491;45.900;6.346;2023-02-28T02:58:03;93612.84;;;23.52;19.62
65359;BME280;52491;45.900;6.346;2023-02-28T03:00:43;93612.06;;;23.51;19.74
65359;BME280;52491;45.900;6.346;2023-02-28T03:03:11;93612.84;;;23.52;19.64
65359;BME280;52491;45.900;6.346;2023-02-28T03:05:48;93608.09;;;23.54;19.68
65359;BME280;52491;45.900;6.346;2023-02-28T03:08:14;93608.88;;;23.54;19.90
65359;BME280;52491;45.900;6.346;2023-02-28T03:10:42;93618.44;;;23.55;19.72
65359;BME280;52491;45.900;6.346;2023-02-28T03:13:14;93612.88;;;23.57;19.69
65359;BME280;52491;45.900;6.346;2023-02-28T03:16:02;93614.47;;;23.58;19.63
65359;BME280;52491;45.900;6.346;2023-02-28T03:18:58;93616.06;;;23.59;19.68
65359;BME280;52491;45.900;6.346;2023-02-28T03:21:36;93621.41;;;23.59;19.58
65359;BME280;52491;45.900;6.346;2023-02-28T03:26:39;93619.78;;;23.58;19.61
65359;BME280;52491;45.900;6.346;2023-02-28T03:29:25;93621.13;;;23.60;19.59
65359;BME280;52491;45.900;6.346;2023-02-28T03:32:05;93616.06;;;23.59;19.65
65359;BME280;52491;45.900;6.346;2023-02-28T03:34:38;93619.53;;;23.59;19.54
65359;BME280;52491;45.900;6.346;2023-02-28T03:37:19;93627.25;;;23.61;19.61
65359;BME280;52491;45.900;6.346;2023-02-28T03:39:51;93621.91;;;23.61;19.49
65359;BME280;52491;45.900;6.346;2023-02-28T03:42:21;93623.78;;;23.60;19.66
65359;BME280;52491;45.900;6.346;2023-02-28T03:44:56;93632.31;;;23.62;19.64
65359;BME280;52491;45.900;6.346;2023-02-28T03:48:19;93623.53;;;23.62;19.72
65359;BME280;52491;45.900;6.346;2023-02-28T03:50:34;93632.56;;;23.61;19.59
65359;BME280;52491;45.900;6.346;2023-02-28T03:55:39;93636.84;;;23.62;19.67
65359;BME280;52491;45.900;6.346;2023-02-28T03:58:30;93634.97;;;23.62;19.75
65359;BME280;52491;45.900;6.346;2023-02-28T04:01:04;93635.75;;;23.63;19.73
65359;BME280;52491;45.900;6.346;2023-02-28T04:03:36;93631.22;;;23.63;19.66
65359;BME280;52491;45.900;6.346;2023-02-28T04:06:02;93624.06;;;23.64;19.44
65359;BME280;52491;45.900;6.346;2023-02-28T04:08:28;93624.59;;;23.66;19.78
65359;BME280;52491;45.900;6.346;2023-02-28T04:11:06;93631.53;;;23.67;19.75
65359;BME280;52491;45.900;6.346;2023-02-28T04:13:37;93628.88;;;23.67;19.64
65359;BME280;52491;45.900;6.346;2023-02-28T04:16:06;93627.78;;;23.68;19.78
65359;BME280;52491;45.900;6.346;2023-02-28T04:18:38;93631.25;;;23.68;19.66
65359;BME280;52491;45.900;6.346;2023-02-28T04:21:04;93638.44;;;23.68;19.54
65359;BME280;52491;45.900;6.346;2023-02-28T04:23:30;93630.47;;;23.68;19.60
65359;BME280;52491;45.900;6.346;2023-02-28T04:25:56;93627.53;;;23.70;19.58
65359;BME280;52491;45.900;6.346;2023-02-28T04:28:22;93625.69;;;23.70;19.71
65359;BME280;52491;45.900;6.346;2023-02-28T04:30:47;93623.84;;;23.71;19.64
65359;BME280;52491;45.900;6.346;2023-02-28T04:33:13;93621.19;;;23.71;19.50
65359;BME280;52491;45.900;6.346;2023-02-28T04:35:38;93628.88;;;23.72;19.63
65359;BME280;52491;45.900;6.346;2023-02-28T04:38:04;93621.97;;;23.71;19.64
65359;BME280;52491;45.900;6.346;2023-02-28T04:40:30;93628.88;;;23.72;19.73
65359;BME280;52491;45.900;6.346;2023-02-28T04:42:55;93629.72;;;23.73;19.65
65359;BME280;52491;45.900;6.346;2023-02-28T04:45:21;93626.75;;;23.74;19.76
65359;BME280;52491;45.900;6.346;2023-02-28T04:47:47;93631.28;;;23.74;19.65
65359;BME280;52491;45.900;6.346;2023-02-28T04:50:12;93639.03;;;23.75;19.56
65359;BME280;52491;45.900;6.346;2023-02-28T04:52:38;93638.22;;;23.75;19.79
65359;BME280;52491;45.900;6.346;2023-02-28T04:55:04;93638.22;;;23.75;19.60
65359;BME280;52491;45.900;6.346;2023-02-28T04:57:30;93641.69;;;23.75;19.63
65359;BME280;52491;45.900;6.346;2023-02-28T04:59:56;93639.81;;;23.76;19.68
65359;BME280;52491;45.900;6.346;2023-02-28T05:02:21;93639.81;;;23.76;19.54
65359;BME280;52491;45.900;6.346;2023-02-28T05:04:48;93637.16;;;23.76;19.50
65359;BME280;52491;45.900;6.346;2023-02-28T05:07:14;93641.41;;;23.77;19.61
65359;BME280;52491;45.900;6.346;2023-02-28T05:09:40;93649.41;;;23.77;19.57
65359;BME280;52491;45.900;6.346;2023-02-28T05:12:05;93644.63;;;23.79;19.54
65359;BME280;52491;45.900;6.346;2023-02-28T05:14:31;93656.84;;;23.80;19.72
65359;BME280;52491;45.900;6.346;2023-02-28T05:16:57;93650.47;;;23.81;19.58
65359;BME280;52491;45.900;6.346;2023-02-28T05:19:22;93654.19;;;23.80;19.72
65359;BME280;52491;45.900;6.346;2023-02-28T05:21:51;93661.94;;;23.81;19.61
65359;BME280;52491;45.900;6.346;2023-02-28T05:24:17;93668.84;;;23.82;19.61
65359;BME280;52491;45.900;6.346;2023-02-28T05:26:50;93671.50;;;23.82;19.62
65359;BME280;52491;45.900;6.346;2023-02-28T05:29:17;93667.50;;;23.85;19.74
65359;BME280;52491;45.900;6.346;2023-02-28T05:31:42;93672.59;;;23.86;19.60
65359;BME280;52491;45.900;6.346;2023-02-28T05:34:08;93674.19;;;23.87;19.84
65359;BME280;52491;45.900;6.346;2023-02-28T05:36:37;93680.28;;;23.88;19.72
65359;BME280;52491;45.900;6.346;2023-02-28T05:39:02;93678.69;;;23.87;20.02
65359;BME280;52491;45.900;6.346;2023-02-28T05:41:29;93681.63;;;23.85;20.18
65359;BME280;52491;45.900;6.346;2023-02-28T05:43:55;93673.63;;;23.85;20.30
65359;BME280;52491;45.900;6.346;2023-02-28T05:46:20;93672.59;;;23.86;20.48
65359;BME280;52491;45.900;6.346;2023-02-28T05:48:47;93674.97;;;23.88;20.43
65359;BME280;52491;45.900;6.346;2023-02-28T05:51:13;93674.19;;;23.87;20.72
65359;BME280;52491;45.900;6.346;2023-02-28T05:53:39;93672.59;;;23.86;20.78
65359;BME280;52491;45.900;6.346;2023-02-28T05:56:05;93676.84;;;23.87;20.67
65359;BME280;52491;45.900;6.346;2023-02-28T05:58:31;93679.50;;;23.87;20.62
65359;BME280;52491;45.900;6.346;2023-02-28T06:00:58;93672.31;;;23.88;21.04
65359;BME280;52491;45.900;6.346;2023-02-28T06:03:23;93674.19;;;23.87;21.10
65359;BME280;52491;45.900;6.346;2023-02-28T06:05:49;93665.13;;;23.88;21.09
65359;BME280;52491;45.900;6.346;2023-02-28T06:08:15;93669.66;;;23.88;21.02
65359;BME280;52491;45.900;6.346;2023-02-28T06:10:41;93669.66;;;23.88;21.15
65359;BME280;52491;45.900;6.346;2023-02-28T06:13:07;93669.91;;;23.86;20.77
65359;BME280;52491;45.900;6.346;2023-02-28T06:15:32;93661.41;;;23.84;20.66
65359;BME280;52491;45.900;6.346;2023-02-28T06:17:58;93664.59;;;23.86;20.77
65359;BME280;52491;45.900;6.346;2023-02-28T06:20:25;93674.19;;;23.87;21.09
65359;BME280;52491;45.900;6.346;2023-02-28T06:22:57;93678.97;;;23.90;21.04
65359;BME280;52491;45.900;6.346;2023-02-28T06:25:24;93681.09;;;23.94;20.94
65359;BME280;52491;45.900;6.346;2023-02-28T06:27:50;93683.50;;;23.90;20.16
65359;BME280;52491;45.900;6.346;2023-02-28T06:30:16;93693.06;;;23.86;20.45
65359;BME280;52491;45.900;6.346;2023-02-28T06:32:42;93692.00;;;23.87;20.49
65359;BME280;52491;45.900;6.346;2023-02-28T06:35:08;93693.59;;;23.88;19.98
65359;BME280;52491;45.900;6.346;2023-02-28T06:37:33;93704.53;;;23.81;20.85
65359;BME280;52491;45.900;6.346;2023-02-28T06:39:59;93710.34;;;23.83;22.35
65359;BME280;52491;45.900;6.346;2023-02-28T06:42:25;93708.25;;;23.85;23.72
65359;BME280;52491;45.900;6.346;2023-02-28T06:44:57;93712.25;;;23.88;24.24
65359;BME280;52491;45.900;6.346;2023-02-28T06:47:23;93709.84;;;23.92;24.88
65359;BME280;52491;45.900;6.346;2023-02-28T06:49:50;93707.72;;;23.94;24.03
65359;BME280;52491;45.900;6.346;2023-02-28T06:52:16;93700.00;;;23.97;24.11
65359;BME280;52491;45.900;6.346;2023-02-28T06:54:41;93700.81;;;24.03;23.50
65359;BME280;52491;45.900;6.346;2023-02-28T06:57:07;93705.63;;;24.01;23.70
65359;BME280;52491;45.900;6.346;2023-02-28T06:59:33;93698.69;;;24.00;23.69
65359;BME280;52491;45.900;6.346;2023-02-28T07:02:00;93706.41;;;24.01;23.67
65359;BME280;52491;45.900;6.346;2023-02-28T07:04:27;93707.22;;;24.02;23.20
65359;BME280;52491;45.900;6.346;2023-02-28T07:06:54;93714.41;;;24.01;23.06
65359;BME280;52491;45.900;6.346;2023-02-28T07:09:22;93716.28;;;24.01;23.14
65359;BME280;52491;45.900;6.346;2023-02-28T07:11:48;93719.97;;;24.00;23.07
65359;BME280;52491;45.900;6.346;2023-02-28T07:14:14;93716.53;;;23.99;22.98
65359;BME280;52491;45.900;6.346;2023-02-28T07:16:39;93714.13;;;23.98;22.91
65359;BME280;52491;45.900;6.346;2023-02-28T07:19:05;93721.06;;;23.99;22.87
65359;BME280;52491;45.900;6.346;2023-02-28T07:21:30;93714.66;;;24.00;22.99
65359;BME280;52491;45.900;6.346;2023-02-28T07:23:56;93718.13;;;23.95;22.19
65359;BME280;52491;45.900;6.346;2023-02-28T07:26:22;93721.03;;;23.94;22.36
65359;BME280;52491;45.900;6.346;2023-02-28T07:28:48;93729.03;;;23.94;22.65
65359;BME280;52491;45.900;6.346;2023-02-28T07:31:15;93729.03;;;23.94;22.55
65359;BME280;52491;45.900;6.346;2023-02-28T07:33:41;93728.50;;;23.97;22.53
65359;BME280;52491;45.900;6.346;2023-02-28T07:36:10;93731.97;;;23.97;22.43
65359;BME280;52491;45.900;6.346;2023-02-28T07:38:43;93741.81;;;23.97;22.53
65359;BME280;52491;45.900;6.346;2023-02-28T07:41:10;93734.91;;;23.96;22.44
65359;BME280;52491;45.900;6.346;2023-02-28T07:43:36;93732.22;;;23.96;22.14
65359;BME280;52491;45.900;6.346;2023-02-28T07:46:08;93737.81;;;23.94;22.22
65359;BME280;52491;45.900;6.346;2023-02-28T07:48:35;93740.22;;;23.96;22.17
65359;BME280;52491;45.900;6.346;2023-02-28T07:51:01;93739.94;;;23.97;22.30
65359;BME280;52491;45.900;6.346;2023-02-28T07:53:28;93739.94;;;23.97;21.92
65359;BME280;52491;45.900;6.346;2023-02-28T07:55:58;93741.81;;;23.97;22.10
65359;BME280;52491;45.900;6.346;2023-02-28T07:58:25;93740.78;;;23.98;22.22
65359;BME280;52491;45.900;6.346;2023-02-28T08:00:51;93740.78;;;23.98;22.16
65359;BME280;52491;45.900;6.346;2023-02-28T08:03:18;93748.47;;;23.99;22.16
65359;BME280;52491;45.900;6.346;2023-02-28T08:05:45;93739.69;;;23.99;21.92
65359;BME280;52491;45.900;6.346;2023-02-28T08:08:11;93742.09;;;24.00;21.84
65359;BME280;52491;45.900;6.346;2023-02-28T08:10:37;93741.28;;;24.00;22.09
65359;BME280;52491;45.900;6.346;2023-02-28T08:13:03;93735.97;;;24.00;21.92
65359;BME280;52491;45.900;6.346;2023-02-28T08:15:29;93738.63;;;24.00;21.99
65359;BME280;52491;45.900;6.346;2023-02-28T08:17:54;93731.72;;;23.99;22.12
65359;BME280;52491;45.900;6.346;2023-02-28T08:20:22;93729.84;;;23.99;22.07
65359;BME280;52491;45.900;6.346;2023-02-28T08:22:48;93724.50;;;23.99;21.99
65359;BME280;52491;45.900;6.346;2023-02-28T08:25:14;93721.59;;;24.01;21.84
65359;BME280;52491;45.900;6.346;2023-02-28T08:27:40;93726.13;;;24.00;21.64
65359;BME280;52491;45.900;6.346;2023-02-28T08:30:06;93730.38;;;24.01;21.80
65359;BME280;52491;45.900;6.346;2023-02-28T08:32:33;93734.13;;;24.00;21.68
65359;BME280;52491;45.900;6.346;2023-02-28T08:34:58;93741.03;;;24.01;21.82
65359;BME280;52491;45.900;6.346;2023-02-28T08:37:24;93738.91;;;24.03;21.86
65359;BME280;52491;45.900;6.346;2023-02-28T08:39:50;93734.63;;;24.02;21.70
65359;BME280;52491;45.900;6.346;2023-02-28T08:42:16;93743.16;;;24.04;21.62
65359;BME280;52491;45.900;6.346;2023-02-28T08:44:41;93746.63;;;24.05;21.66
65359;BME280;52491;45.900;6.346;2023-02-28T08:47:07;93745.59;;;24.06;21.70
65359;BME280;52491;45.900;6.346;2023-02-28T08:49:33;93743.44;;;24.08;21.81
65359;BME280;52491;45.900;6.346;2023-02-28T08:51:58;93741.56;;;24.08;21.69
65359;BME280;52491;45.900;6.346;2023-02-28T08:54:24;93734.66;;;24.12;21.67
65359;BME280;52491;45.900;6.346;2023-02-28T08:56:50;93735.19;;;24.20;21.32
65359;BME280;52491;45.900;6.346;2023-02-28T08:59:16;93742.66;;;24.18;21.37
65359;BME280;52491;45.900;6.346;2023-02-28T09:01:41;93735.47;;;24.18;21.48
65359;BME280;52491;45.900;6.346;2023-02-28T09:04:09;93740.50;;;24.20;21.64
65359;BME280;52491;45.900;6.346;2023-02-28T09:06:36;93734.16;;;24.21;21.44
65359;BME280;52491;45.900;6.346;2023-02-28T09:09:02;93740.25;;;24.21;21.53
65359;BME280;52491;45.900;6.346;2023-02-28T09:11:29;93742.13;;;24.21;21.58
65359;BME280;52491;45.900;6.346;2023-02-28T09:13:55;93747.47;;;24.21;21.46
65359;BME280;52491;45.900;6.346;2023-02-28T09:16:21;93748.25;;;24.21;21.32
65359;BME280;52491;45.900;6.346;2023-02-28T09:18:47;93745.59;;;24.21;21.54
65359;BME280;52491;45.900;6.346;2023-02-28T09:21:15;93750.66;;;24.23;21.53
65359;BME280;52491;45.900;6.346;2023-02-28T09:23:43;93744.53;;;24.22;21.29
65359;BME280;52491;45.900;6.346;2023-02-28T09:26:14;93750.38;;;24.24;21.51
65359;BME280;52491;45.900;6.346;2023-02-28T09:28:40;93754.66;;;24.25;21.40
65359;BME280;52491;45.900;6.346;2023-02-28T09:31:05;93758.38;;;24.19;21.63
65359;BME280;52491;45.900;6.346;2023-02-28T09:33:31;93755.69;;;24.19;21.64
65359;BME280;52491;45.900;6.346;2023-02-28T09:35:59;93746.38;;;24.22;21.44
65359;BME280;52491;45.900;6.346;2023-02-28T09:38:25;93748.00;;;24.23;21.62
65359;BME280;52491;45.900;6.346;2023-02-28T09:40:56;93747.72;;;24.24;21.36
65359;BME280;52491;45.900;6.346;2023-02-28T09:43:24;93755.72;;;24.24;21.49
65359;BME280;52491;45.900;6.346;2023-02-28T09:45:59;93758.38;;;24.24;21.55
65359;BME280;52491;45.900;6.346;2023-02-28T09:48:31;93760.50;;;24.22;21.27
65359;BME280;52491;45.900;6.346;2023-02-28T09:51:04;93757.31;;;24.20;21.48
65359;BME280;52491;45.900;6.346;2023-02-28T09:53:36;93748.25;;;24.21;21.54
65359;BME280;52491;45.900;6.346;2023-02-28T09:56:09;93756.25;;;24.21;21.60
65359;BME280;52491;45.900;6.346;2023-02-28T09:58:49;93755.16;;;24.22;21.61
65359;BME280;52491;45.900;6.346;2023-02-28T10:01:37;93748.25;;;24.21;21.49
65359;BME280;52491;45.900;6.346;2023-02-28T10:04:18;93752.00;;;24.20;21.24
65359;BME280;52491;45.900;6.346;2023-02-28T10:06:54;93748.78;;;24.18;21.41
65359;BME280;52491;45.900;6.346;2023-02-28T10:09:30;93749.84;;;24.17;21.50
65359;BME280;52491;45.900;6.346;2023-02-28T10:12:05;93754.13;;;24.18;21.53
65359;BME280;52491;45.900;6.346;2023-02-28T10:14:35;93749.59;;;24.19;21.27
65359;BME280;52491;45.900;6.346;2023-02-28T10:17:37;93750.38;;;24.19;21.28
65359;BME280;52491;45.900;6.346;2023-02-28T10:20:21;93738.94;;;24.19;21.53
65359;BME280;52491;45.900;6.346;2023-02-28T10:25:28;93746.38;;;24.22;21.25
65359;BME280;52491;45.900;6.346;2023-02-28T10:28:07;93746.13;;;24.23;21.50
65359;BME280;52491;45.900;6.346;2023-02-28T10:30:36;93733.63;;;24.24;21.44
65359;BME280;52491;45.900;6.346;2023-02-28T10:33:04;93738.66;;;24.25;21.31
65359;BME280;52491;45.900;6.346;2023-02-28T10:35:30;93733.34;;;24.25;21.18
65359;BME280;52491;45.900;6.346;2023-02-28T10:37:59;93733.06;;;24.27;21.48
65359;BME280;52491;45.900;6.346;2023-02-28T10:40:37;93726.69;;;24.28;21.38
65359;BME280;52491;45.900;6.346;2023-02-28T10:43:04;93725.34;;;24.30;21.31
65359;BME280;52491;45.900;6.346;2023-02-28T10:45:34;93726.97;;;24.31;21.27
65359;BME280;52491;45.900;6.346;2023-02-28T10:50:44;93725.63;;;24.34;21.28
65359;BME280;52491;45.900;6.346;2023-02-28T10:55:36;93727.22;;;24.35;21.40
65359;BME280;52491;45.900;6.346;2023-02-28T10:58:02;93724.81;;;24.39;21.28
65359;BME280;52491;45.900;6.346;2023-02-28T11:00:37;93719.25;;;24.40;21.27
65359;BME280;52491;45.900;6.346;2023-02-28T11:03:28;93723.25;;;24.43;21.29
65359;BME280;52491;45.900;6.346;2023-02-28T11:05:54;93723.78;;;24.40;21.51
65359;BME280;52491;45.900;6.346;2023-02-28T11:08:20;93726.16;;;24.41;21.17
65359;BME280;52491;45.900;6.346;2023-02-28T11:10:48;93717.09;;;24.42;21.36
65359;BME280;52491;45.900;6.346;2023-02-28T11:13:20;93712.59;;;24.43;21.49
65359;BME280;52491;45.900;6.346;2023-02-28T11:15:59;93716.88;;;24.44;21.21
65359;BME280;52491;45.900;6.346;2023-02-28T11:20:53;93716.81;;;24.39;20.54
65359;BME280;52491;45.900;6.346;2023-02-28T11:23:21;93712.28;;;24.19;19.39
65359;BME280;52491;45.900;6.346;2023-02-28T11:25:51;93713.53;;;23.80;18.50
65359;BME280;52491;45.900;6.346;2023-02-28T11:28:33;93717.56;;;23.20;18.29
65359;BME280;52491;45.900;6.346;2023-02-28T11:31:03;93719.34;;;22.67;18.22
65359;BME280;52491;45.900;6.346;2023-02-28T11:33:31;93709.47;;;22.25;18.12
65359;BME280;52491;45.900;6.346;2023-02-28T11:36:03;93709.06;;;21.84;18.20
65359;BME280;52491;45.900;6.346;2023-02-28T11:38:35;93703.69;;;21.52;18.71
65359;BME280;52491;45.900;6.346;2023-02-28T11:49:32;93701.31;;;22.37;18.86
65359;BME280;52491;45.900;6.346;2023-02-28T11:52:02;93698.53;;;22.53;18.92
65359;BME280;52491;45.900;6.346;2023-02-28T12:01:23;93697.19;;;22.93;19.24
65359;BME280;52491;45.900;6.346;2023-02-28T12:03:45;93699.38;;;23.01;19.38
65359;BME280;52491;45.900;6.346;2023-02-28T12:11:44;93688.59;;;23.23;19.80
65359;BME280;52491;45.900;6.346;2023-02-28T12:14:20;93688.38;;;23.30;19.78
65359;BME280;52491;45.900;6.346;2023-02-28T12:20:45;93677.50;;;23.42;19.87
65359;BME280;52491;45.900;6.346;2023-02-28T12:23:14;93677.22;;;23.43;20.04
65359;BME280;52491;45.900;6.346;2023-02-28T12:28:50;93680.72;;;23.54;20.03
65359;BME280;52491;45.900;6.346;2023-02-28T12:31:32;93671.16;;;23.58;20.17
65359;BME280;52491;45.900;6.346;2023-02-28T12:34:04;93673.56;;;23.60;20.10
65359;BME280;52491;45.900;6.346;2023-02-28T12:36:33;93665.31;;;23.61;20.23
65359;BME280;52491;45.900;6.346;2023-02-28T12:39:04;93664.00;;;23.64;20.26
65359;BME280;52491;45.900;6.346;2023-02-28T12:44:28;93654.66;;;23.66;20.21
65359;BME280;52491;45.900;6.346;2023-02-28T12:47:00;93650.94;;;23.67;20.39
65359;BME280;52491;45.900;6.346;2023-02-28T12:49:39;93642.69;;;23.69;20.46
65359;BME280;52491;45.900;6.346;2023-02-28T12:52:07;93657.38;;;23.72;20.54
65359;BME280;52491;45.900;6.346;2023-02-28T12:55:12;93656.03;;;23.74;20.67
65359;BME280;52491;45.900;6.346;2023-02-28T13:00:38;93655.50;;;23.77;20.61
65359;BME280;52491;45.900;6.346;2023-02-28T13:11:33;93646.75;;;23.87;20.66
65359;BME280;52491;45.900;6.346;2023-02-28T13:14:15;93646.47;;;23.88;20.68
65359;BME280;52491;45.900;6.346;2023-02-28T13:19:34;93653.94;;;23.92;20.72
65359;BME280;52491;45.900;6.346;2023-02-28T13:22:01;93642.25;;;23.93;20.56
65359;BME280;52491;45.900;6.346;2023-02-28T13:24:46;93642.25;;;23.93;20.73
65359;BME280;52491;45.900;6.346;2023-02-28T13:29:51;93639.81;;;23.91;20.86
65359;BME280;52491;45.900;6.346;2023-02-28T13:32:30;93644.09;;;23.92;20.83
65359;BME280;52491;45.900;6.346;2023-02-28T13:39:59;93631.59;;;23.93;20.92
65359;BME280;52491;45.900;6.346;2023-02-28T13:42:36;93635.03;;;23.93;20.83
65359;BME280;52491;45.900;6.346;2023-02-28T13:47:41;93636.91;;;23.93;21.08
65359;BME280;52491;45.900;6.346;2023-02-28T14:06:58;93634.25;;;23.93;21.00
65359;BME280;52491;45.900;6.346;2023-02-28T14:09:31;93638.50;;;23.94;21.06
65359;BME280;52491;45.900;6.346;2023-02-28T14:15:03;93641.97;;;23.94;21.10
65359;BME280;52491;45.900;6.346;2023-02-28T14:17:31;93632.13;;;23.95;20.83
65359;BME280;52491;45.900;6.346;2023-02-28T14:19:57;93642.78;;;23.95;21.14
65359;BME280;52491;45.900;6.346;2023-02-28T14:22:39;93631.84;;;23.96;21.14
65359;BME280;52491;45.900;6.346;2023-02-28T14:25:15;93635.31;;;23.97;20.91
65359;BME280;52491;45.900;6.346;2023-02-28T14:28:23;93636.91;;;23.98;20.79
65359;BME280;52491;45.900;6.346;2023-02-28T14:31:17;93638.75;;;23.97;21.11
65359;BME280;52491;45.900;6.346;2023-02-28T14:34:26;93643.84;;;23.99;21.15
65359;BME280;52491;45.900;6.346;2023-02-28T14:37:00;93647.56;;;23.98;21.16
65359;BME280;52491;45.900;6.346;2023-02-28T14:39:27;93646.50;;;23.99;20.96
65359;BME280;52491;45.900;6.346;2023-02-28T14:41:56;93641.16;;;23.99;20.87
65359;BME280;52491;45.900;6.346;2023-02-28T14:44:28;93648.38;;;23.98;21.15
65359;BME280;52491;45.900;6.346;2023-02-28T14:47:02;93648.09;;;24.00;21.08
65359;BME280;52491;45.900;6.346;2023-02-28T14:49:42;93647.03;;;24.01;21.08
65359;BME280;52491;45.900;6.346;2023-02-28T14:52:20;93653.16;;;24.01;21.18
65359;BME280;52491;45.900;6.346;2023-02-28T14:55:14;93652.38;;;24.01;21.04
65359;BME280;52491;45.900;6.346;2023-02-28T14:57:50;93649.16;;;23.99;21.23
65359;BME280;52491;45.900;6.346;2023-02-28T15:02:48;93652.38;;;24.01;20.98
65359;BME280;52491;45.900;6.346;2023-02-28T15:07:46;93647.56;;;24.03;20.97
65359;BME280;52491;45.900;6.346;2023-02-28T15:10:21;93645.16;;;24.01;21.06